Time;durP1;ratioP1;P1;durP2;ratioP2;P2;SDS_P1;SDS_P2;PMS_P1;PMS_P2;Temp;Humidity;BMP_temperature;BMP_pressure;BME280_temperature;BME280_humidity;BME280_pressure;Samples;Min_cycle;Max_cycle;Signal;HPM_P1;HPM_P2
2021/10/11 00:00:41;;;;;;;55.22;33.83;;;13.50;99.90;;;;;;4135061;28;20042;-74
2021/10/11 00:02:41;;;;;;;48.28;30.17;;;13.50;99.90;;;;;;4125235;28;20035;-74
2021/10/11 00:04:42;;;;;;;47.00;31.52;;;13.50;99.90;;;;;;4128512;28;20548;-74
2021/10/11 00:06:43;;;;;;;45.75;30.80;;;13.50;99.90;;;;;;4131325;28;20034;-74
2021/10/11 00:08:43;;;;;;;50.13;31.52;;;13.50;99.90;;;;;;4135320;28;20050;-74
2021/10/11 00:10:44;;;;;;;45.53;30.92;;;13.50;99.90;;;;;;4133127;28;20026;-73
2021/10/11 00:12:47;;;;;;;50.17;32.22;;;13.50;99.90;;;;;;4128136;28;20177;-74
2021/10/11 00:14:47;;;;;;;;;;;13.50;99.90;;;;;;4137639;28;20046;-73
2021/10/11 00:16:48;;;;;;;46.95;30.02;;;13.50;99.90;;;;;;4133774;28;19910;-74
2021/10/11 00:18:48;;;;;;;49.25;30.65;;;13.50;99.90;;;;;;4124833;28;20092;-74
2021/10/11 00:20:49;;;;;;;54.65;32.53;;;13.50;99.90;;;;;;4134050;28;20497;-73
2021/10/11 00:22:50;;;;;;;54.60;36.13;;;13.50;99.90;;;;;;4136329;28;20037;-74
2021/10/11 00:24:51;;;;;;;52.13;33.85;;;13.50;99.90;;;;;;4129023;28;20045;-74
2021/10/11 00:26:52;;;;;;;48.85;31.40;;;13.50;99.90;;;;;;4137960;28;20084;-73
2021/10/11 00:28:53;;;;;;;56.42;35.92;;;13.50;99.90;;;;;;4127309;28;20469;-74
2021/10/11 00:30:53;;;;;;;49.17;31.63;;;13.40;99.90;;;;;;4137012;28;20034;-74
2021/10/11 00:32:54;;;;;;;48.55;32.92;;;13.40;99.90;;;;;;4139403;28;20041;-74
2021/10/11 00:34:54;;;;;;;52.20;31.75;;;13.40;99.90;;;;;;4137044;28;20041;-74
2021/10/11 00:36:55;;;;;;;48.97;31.58;;;13.40;99.90;;;;;;4139522;28;20030;-74
2021/10/11 00:38:56;;;;;;;47.20;31.48;;;13.50;99.90;;;;;;4136836;28;20038;-74
2021/10/11 00:40:57;;;;;;;51.78;32.35;;;13.50;99.90;;;;;;4136026;28;20126;-74
2021/10/11 00:42:57;;;;;;;54.38;34.78;;;13.50;99.90;;;;;;4138407;28;20034;-74
2021/10/11 00:44:58;;;;;;;55.83;33.53;;;13.50;99.90;;;;;;4119203;28;20666;-74
2021/10/11 00:46:59;;;;;;;52.85;33.75;;;13.40;99.90;;;;;;4137504;28;20053;-74
2021/10/11 00:48:59;;;;;;;52.22;33.75;;;13.50;99.90;;;;;;4136393;28;20031;-74
2021/10/11 00:51:00;;;;;;;56.25;34.42;;;13.50;99.90;;;;;;4138192;28;20054;-74
2021/10/11 00:53:01;;;;;;;60.22;36.85;;;13.50;99.90;;;;;;4132389;28;20030;-74
2021/10/11 00:55:02;;;;;;;53.30;35.08;;;13.50;99.90;;;;;;4137488;28;20029;-74
2021/10/11 00:57:03;;;;;;;60.97;36.83;;;13.40;99.90;;;;;;4137244;28;20576;-74
2021/10/11 00:59:03;;;;;;;56.10;35.28;;;13.40;99.90;;;;;;4115911;28;20174;-74
2021/10/11 01:01:04;;;;;;;58.28;36.58;;;13.40;99.90;;;;;;4132286;28;20119;-74
2021/10/11 01:03:04;;;;;;;49.97;33.25;;;13.40;99.90;;;;;;4136198;28;20026;-74
2021/10/11 01:05:06;;;;;;;64.40;40.67;;;13.40;99.90;;;;;;4139808;28;20032;-74
2021/10/11 01:07:06;;;;;;;54.72;35.28;;;13.40;99.90;;;;;;4139174;28;20026;-74
2021/10/11 01:09:09;;;;;;;56.03;34.63;;;13.40;99.90;;;;;;4138289;28;20088;-74
2021/10/11 01:11:11;;;;;;;61.90;40.33;;;13.40;99.90;;;;;;4133788;28;20035;-74
2021/10/11 01:13:12;;;;;;;62.78;39.97;;;13.40;99.90;;;;;;4138385;28;20038;-74
2021/10/11 01:15:12;;;;;;;58.20;36.42;;;13.30;99.90;;;;;;4139205;28;20030;-74
2021/10/11 01:17:15;;;;;;;55.38;36.88;;;13.30;99.90;;;;;;4129843;28;20034;-74
2021/10/11 01:19:15;;;;;;;55.20;35.60;;;13.30;99.90;;;;;;4135169;28;20044;-74
2021/10/11 01:21:16;;;;;;;60.10;35.67;;;13.30;99.90;;;;;;4128950;28;20751;-74
2021/10/11 01:23:17;;;;;;;49.80;32.00;;;13.30;99.90;;;;;;4132484;28;20053;-74
2021/10/11 01:25:17;;;;;;;43.25;28.90;;;13.30;99.90;;;;;;4130330;28;20560;-74
2021/10/11 01:27:18;;;;;;;47.97;30.85;;;13.30;99.90;;;;;;4132741;28;20042;-74
2021/10/11 01:29:19;;;;;;;45.42;30.88;;;13.40;99.90;;;;;;4139359;28;20034;-74
2021/10/11 01:31:19;;;;;;;50.90;32.58;;;13.40;99.90;;;;;;4135836;28;20568;-74
2021/10/11 01:33:20;;;;;;;52.20;32.70;;;13.50;99.90;;;;;;4129869;28;20053;-74
2021/10/11 01:35:21;;;;;;;54.78;34.78;;;13.50;99.90;;;;;;4126807;28;20118;-74
2021/10/11 01:37:22;;;;;;;48.42;31.25;;;13.50;99.90;;;;;;4139070;28;20092;-74
2021/10/11 01:39:22;;;;;;;47.78;31.60;;;13.50;99.90;;;;;;4134057;28;20800;-74
2021/10/11 01:41:23;;;;;;;48.10;30.63;;;13.50;99.90;;;;;;4126971;28;20405;-74
2021/10/11 01:43:24;;;;;;;43.15;28.85;;;13.50;99.90;;;;;;4135601;28;20679;-74
2021/10/11 01:45:24;;;;;;;45.97;29.88;;;13.50;99.90;;;;;;4129562;28;20445;-74
2021/10/11 01:47:26;;;;;;;47.58;30.60;;;13.50;99.90;;;;;;4129986;28;20709;-74
2021/10/11 01:49:27;;;;;;;43.67;28.33;;;13.50;99.90;;;;;;4135012;28;20031;-73
2021/10/11 01:51:27;;;;;;;48.13;30.65;;;13.50;99.90;;;;;;4135180;28;20032;-73
2021/10/11 01:53:28;;;;;;;39.78;26.55;;;13.60;99.90;;;;;;4133340;28;20037;-74
2021/10/11 01:55:29;;;;;;;40.55;26.67;;;13.50;99.90;;;;;;4124527;28;20034;-73
2021/10/11 01:57:29;;;;;;;38.10;25.30;;;13.50;99.90;;;;;;4131833;28;20669;-73
2021/10/11 01:59:30;;;;;;;39.28;23.38;;;13.60;99.90;;;;;;4131399;28;20049;-73
2021/10/11 02:01:30;;;;;;;30.77;20.63;;;13.60;99.90;;;;;;4133457;28;20074;-73
2021/10/11 02:03:31;;;;;;;30.33;21.17;;;13.60;99.90;;;;;;4134284;28;20551;-73
2021/10/11 02:05:31;;;;;;;28.95;19.60;;;13.70;99.90;;;;;;4135150;28;20049;-73
2021/10/11 02:07:32;;;;;;;35.05;23.33;;;13.70;99.90;;;;;;4129240;28;20025;-73
2021/10/11 02:09:33;;;;;;;35.17;23.00;;;13.70;99.90;;;;;;4129552;28;20092;-73
2021/10/11 02:11:33;;;;;;;30.35;20.45;;;13.70;99.90;;;;;;4130320;28;20061;-73
2021/10/11 02:13:34;;;;;;;33.03;21.15;;;13.80;99.90;;;;;;4138957;28;20399;-73
2021/10/11 02:15:34;;;;;;;34.20;21.85;;;13.80;99.90;;;;;;4129225;28;20541;-73
2021/10/11 02:17:35;;;;;;;30.75;21.52;;;13.80;99.90;;;;;;4133742;28;20045;-73
2021/10/11 02:19:36;;;;;;;31.70;21.50;;;13.70;99.90;;;;;;4134402;28;20465;-73
2021/10/11 02:21:37;;;;;;;29.83;21.00;;;13.70;99.90;;;;;;4134423;28;20104;-73
2021/10/11 02:23:37;;;;;;;30.85;20.27;;;13.70;99.90;;;;;;4131020;28;20594;-73
2021/10/11 02:25:38;;;;;;;27.92;19.13;;;13.70;99.90;;;;;;4129533;28;20482;-73
2021/10/11 02:27:39;;;;;;;30.48;19.65;;;13.70;99.90;;;;;;4125305;28;20061;-73
2021/10/11 02:29:39;;;;;;;28.85;20.50;;;13.70;99.90;;;;;;4125333;28;20643;-73
2021/10/11 02:31:40;;;;;;;29.27;18.83;;;13.70;99.90;;;;;;4127148;28;20057;-73
2021/10/11 02:33:41;;;;;;;25.33;17.75;;;13.70;99.90;;;;;;4133713;28;20116;-73
2021/10/11 02:35:41;;;;;;;27.45;17.70;;;13.70;99.90;;;;;;4137281;28;20042;-73
2021/10/11 02:37:43;;;;;;;25.33;16.55;;;13.80;99.90;;;;;;4127321;28;20121;-74
2021/10/11 02:39:43;;;;;;;27.00;18.52;;;13.80;99.90;;;;;;4128729;28;20490;-73
2021/10/11 02:41:44;;;;;;;27.17;17.55;;;13.80;99.90;;;;;;4129639;28;20064;-73
2021/10/11 02:43:45;;;;;;;22.90;16.15;;;13.80;99.90;;;;;;4136727;28;20034;-73
2021/10/11 02:45:45;;;;;;;24.80;15.85;;;13.80;99.90;;;;;;4131438;28;20454;-73
2021/10/11 02:47:46;;;;;;;21.98;15.65;;;13.80;99.90;;;;;;4133973;28;20152;-73
2021/10/11 02:49:46;;;;;;;21.58;14.95;;;13.80;99.90;;;;;;4137074;28;20570;-73
2021/10/11 02:51:47;;;;;;;22.48;14.88;;;13.80;99.90;;;;;;4123685;28;20076;-73
2021/10/11 02:53:49;;;;;;;20.95;14.38;;;13.80;99.90;;;;;;4132816;28;20376;-73
2021/10/11 02:55:49;;;;;;;21.60;15.00;;;13.80;99.90;;;;;;4133297;28;20099;-73
2021/10/11 02:57:50;;;;;;;19.88;13.70;;;13.90;99.90;;;;;;4128470;28;20265;-73
2021/10/11 02:59:50;;;;;;;20.08;13.70;;;13.90;99.90;;;;;;4131052;28;20061;-73
2021/10/11 03:01:51;;;;;;;18.35;12.55;;;13.90;99.90;;;;;;4134415;28;20034;-73
2021/10/11 03:03:52;;;;;;;16.50;11.48;;;13.90;99.90;;;;;;4138044;28;20030;-73
2021/10/11 03:05:52;;;;;;;17.38;11.20;;;13.90;99.90;;;;;;4112883;28;20418;-73
2021/10/11 03:07:53;;;;;;;17.85;12.05;;;13.90;99.90;;;;;;4130121;28;20045;-73
2021/10/11 03:09:53;;;;;;;18.83;11.80;;;14.00;99.90;;;;;;4133803;28;20034;-73
2021/10/11 03:11:54;;;;;;;18.42;13.02;;;13.90;99.90;;;;;;4133863;28;20096;-73
2021/10/11 03:13:54;;;;;;;21.50;12.70;;;13.90;99.90;;;;;;4122352;28;20070;-73
2021/10/11 03:15:56;;;;;;;20.42;12.73;;;13.90;99.90;;;;;;4126853;28;20043;-73
2021/10/11 03:17:56;;;;;;;18.45;12.00;;;13.80;99.90;;;;;;4133419;28;20042;-73
2021/10/11 03:19:57;;;;;;;20.52;12.20;;;13.80;99.90;;;;;;4133831;28;20687;-73
2021/10/11 03:21:58;;;;;;;21.60;13.25;;;13.80;99.90;;;;;;4137252;28;20038;-73
2021/10/11 03:23:58;;;;;;;18.58;12.30;;;13.70;99.90;;;;;;4125141;28;20828;-73
2021/10/11 03:25:59;;;;;;;19.73;12.82;;;13.70;99.90;;;;;;4131353;28;20032;-73
2021/10/11 03:27:59;;;;;;;19.10;12.77;;;13.70;99.90;;;;;;4124860;28;20037;-73
2021/10/11 03:30:00;;;;;;;18.38;11.82;;;13.70;99.90;;;;;;4126975;28;20109;-73
2021/10/11 03:32:00;;;;;;;20.55;13.88;;;13.70;99.90;;;;;;4131099;28;20663;-73
2021/10/11 03:34:01;;;;;;;21.05;11.98;;;13.70;99.90;;;;;;4124779;28;20042;-73
2021/10/11 03:36:02;;;;;;;17.95;11.80;;;13.70;99.90;;;;;;4128753;28;20054;-73
2021/10/11 03:38:03;;;;;;;23.50;13.63;;;13.60;99.90;;;;;;4130647;28;20038;-73
2021/10/11 03:40:04;;;;;;;18.80;11.85;;;13.70;99.90;;;;;;4130902;28;20133;-73
2021/10/11 03:42:05;;;;;;;20.63;13.35;;;13.70;99.90;;;;;;4125924;28;20046;-73
2021/10/11 03:44:06;;;;;;;18.45;10.80;;;13.60;99.90;;;;;;4132404;28;20480;-73
2021/10/11 03:46:06;;;;;;;19.85;11.27;;;13.50;99.90;;;;;;4138976;28;20411;-73
2021/10/11 03:48:07;;;;;;;16.95;10.40;;;13.50;99.90;;;;;;4128916;28;20089;-73
2021/10/11 03:50:08;;;;;;;18.52;10.48;;;13.40;99.90;;;;;;4133955;28;20630;-72
2021/10/11 03:52:09;;;;;;;16.15;9.77;;;13.40;99.90;;;;;;4128517;28;20061;-73
2021/10/11 03:54:11;;;;;;;16.42;10.23;;;13.40;99.90;;;;;;4120693;28;20046;-73
2021/10/11 03:56:12;;;;;;;;;;;13.40;99.90;;;;;;4126156;28;20030;-73
2021/10/11 03:58:13;;;;;;;15.60;9.10;;;13.40;99.90;;;;;;4127166;28;19921;-73
2021/10/11 04:00:14;;;;;;;16.73;9.00;;;13.40;99.90;;;;;;4133425;28;20046;-73
2021/10/11 04:02:15;;;;;;;13.00;8.63;;;13.50;99.90;;;;;;4137886;28;20128;-73
2021/10/11 04:04:16;;;;;;;14.43;8.13;;;13.50;99.90;;;;;;4149067;28;20593;-73
2021/10/11 04:06:17;;;;;;;14.93;8.82;;;13.50;99.90;;;;;;4135275;28;20056;-73
2021/10/11 04:08:20;;;;;;;13.00;7.47;;;13.60;99.90;;;;;;4122129;28;20066;-73
2021/10/11 04:10:27;;;;;;;;;;;13.50;99.90;;;;;;4139077;28;20058;-73
2021/10/11 04:12:34;;;;;;;14.13;7.18;;;13.50;99.90;;;;;;4138523;28;20442;-73
2021/10/11 04:14:35;;;;;;;12.48;7.65;;;13.50;99.90;;;;;;4136866;28;20121;-73
2021/10/11 04:16:36;;;;;;;12.52;7.20;;;13.50;99.90;;;;;;4138246;28;20481;-74
2021/10/11 04:18:37;;;;;;;15.82;6.65;;;13.50;99.90;;;;;;4138283;28;20040;-73
2021/10/11 04:20:37;;;;;;;12.63;7.72;;;13.50;99.90;;;;;;4135578;28;20112;-73
2021/10/11 04:22:38;;;;;;;19.23;7.75;;;13.50;99.90;;;;;;4136540;28;20107;-73
2021/10/11 04:24:39;;;;;;;12.80;7.30;;;13.40;99.90;;;;;;4136034;28;20065;-73
2021/10/11 04:26:40;;;;;;;14.18;8.05;;;13.40;99.90;;;;;;4137442;28;20046;-73
2021/10/11 04:28:40;;;;;;;13.88;7.10;;;13.40;99.90;;;;;;4136263;28;20132;-73
2021/10/11 04:30:42;;;;;;;13.52;7.47;;;13.40;99.90;;;;;;4137911;28;20137;-73
2021/10/11 04:32:43;;;;;;;14.32;7.57;;;13.40;99.90;;;;;;4139528;28;20046;-74
2021/10/11 04:34:43;;;;;;;13.05;8.05;;;13.40;99.90;;;;;;4136532;28;20038;-73
2021/10/11 04:36:44;;;;;;;14.48;7.20;;;13.40;99.90;;;;;;4139861;28;20030;-73
2021/10/11 04:38:44;;;;;;;14.10;7.35;;;13.40;99.90;;;;;;4138301;28;20042;-73
2021/10/11 04:40:45;;;;;;;11.75;7.07;;;13.40;99.90;;;;;;4119969;28;20834;-73
2021/10/11 04:42:46;;;;;;;12.10;7.05;;;13.40;99.90;;;;;;4135772;28;20045;-73
2021/10/11 04:44:46;;;;;;;11.50;6.75;;;13.40;99.90;;;;;;4137474;28;20022;-73
2021/10/11 04:46:47;;;;;;;10.52;6.50;;;13.40;99.90;;;;;;4138726;28;20553;-73
2021/10/11 04:48:48;;;;;;;9.77;5.88;;;13.40;99.90;;;;;;4135973;28;20030;-73
2021/10/11 04:50:48;;;;;;;11.95;6.97;;;13.50;99.90;;;;;;4136012;28;20026;-73
2021/10/11 04:52:49;;;;;;;10.65;6.00;;;13.50;99.90;;;;;;4136973;28;20038;-74
2021/10/11 04:54:50;;;;;;;12.65;6.85;;;13.50;99.90;;;;;;4137574;28;20041;-73
2021/10/11 04:56:50;;;;;;;11.18;6.45;;;13.50;99.90;;;;;;4137866;28;20033;-73
2021/10/11 04:58:51;;;;;;;12.15;6.10;;;13.50;99.90;;;;;;4138543;28;20042;-74
2021/10/11 05:00:51;;;;;;;11.02;5.63;;;13.40;99.90;;;;;;4136573;28;20073;-73
2021/10/11 05:02:52;;;;;;;8.40;5.38;;;13.40;99.90;;;;;;4138992;28;20081;-73
2021/10/11 05:04:52;;;;;;;11.43;5.57;;;13.50;99.90;;;;;;4139439;28;20026;-73
2021/10/11 05:06:53;;;;;;;11.23;5.70;;;13.50;99.90;;;;;;4140543;28;20485;-73
2021/10/11 05:08:53;;;;;;;10.00;5.20;;;13.50;99.90;;;;;;4132625;28;20034;-73
2021/10/11 05:10:54;;;;;;;12.43;5.43;;;13.50;99.90;;;;;;4138153;28;20479;-73
2021/10/11 05:12:55;;;;;;;11.68;4.53;;;13.40;99.90;;;;;;4138894;28;20038;-73
2021/10/11 05:14:55;;;;;;;8.60;4.63;;;13.40;99.90;;;;;;4138761;28;20099;-73
2021/10/11 05:16:56;;;;;;;8.80;4.40;;;13.40;99.90;;;;;;4133363;28;20079;-73
2021/10/11 05:18:57;;;;;;;7.38;4.10;;;13.40;99.90;;;;;;4138425;28;20045;-73
2021/10/11 05:20:58;;;;;;;12.95;4.70;;;13.30;99.90;;;;;;4139221;28;20053;-73
2021/10/11 05:22:59;;;;;;;8.68;4.20;;;13.30;99.90;;;;;;4127418;28;20037;-74
2021/10/11 05:25:00;;;;;;;12.30;4.32;;;13.30;99.90;;;;;;4138474;28;20072;-73
2021/10/11 05:27:00;;;;;;;7.45;3.92;;;13.40;99.90;;;;;;4121393;28;20019;-73
2021/10/11 05:29:03;;;;;;;6.60;3.42;;;13.40;99.90;;;;;;4138560;28;20033;-73
2021/10/11 05:31:04;;;;;;;8.98;4.10;;;13.40;99.90;;;;;;4133859;28;20050;-73
2021/10/11 05:33:04;;;;;;;8.88;3.88;;;13.40;99.90;;;;;;4137786;28;20057;-74
2021/10/11 05:35:06;;;;;;;12.52;4.15;;;13.40;99.90;;;;;;4137951;28;20034;-73
2021/10/11 05:37:06;;;;;;;8.70;3.53;;;13.40;99.90;;;;;;4137607;28;20505;-73
2021/10/11 05:39:07;;;;;;;8.18;3.63;;;13.40;99.90;;;;;;4137356;28;20126;-73
2021/10/11 05:41:08;;;;;;;9.02;3.45;;;13.40;99.90;;;;;;4134274;28;20073;-73
2021/10/11 05:43:08;;;;;;;11.98;4.00;;;13.40;99.90;;;;;;4136999;28;20037;-73
2021/10/11 05:45:09;;;;;;;10.07;3.53;;;13.30;99.90;;;;;;4138630;28;20180;-73
2021/10/11 05:47:10;;;;;;;12.10;3.50;;;13.30;99.90;;;;;;4138808;28;20026;-73
2021/10/11 05:49:12;;;;;;;7.53;3.33;;;13.30;99.90;;;;;;4138601;28;20128;-73
2021/10/11 05:51:12;;;;;;;7.72;2.72;;;13.30;99.90;;;;;;4132347;28;20054;-73
2021/10/11 05:53:13;;;;;;;6.68;2.83;;;13.30;99.90;;;;;;4138512;28;20042;-73
2021/10/11 05:55:14;;;;;;;10.35;3.05;;;13.30;99.90;;;;;;4118583;28;20145;-73
2021/10/11 05:57:14;;;;;;;7.47;3.10;;;13.30;99.90;;;;;;4138501;28;20502;-73
2021/10/11 05:59:15;;;;;;;6.63;2.20;;;13.20;99.90;;;;;;4136470;28;20032;-72
2021/10/11 06:01:16;;;;;;;7.38;2.95;;;13.30;99.90;;;;;;4136392;28;20052;-73
2021/10/11 06:03:16;;;;;;;10.93;3.08;;;13.30;99.90;;;;;;4136675;28;20065;-74
2021/10/11 06:05:17;;;;;;;8.77;3.28;;;13.30;99.90;;;;;;4138472;28;20034;-73
2021/10/11 06:07:18;;;;;;;16.13;3.30;;;13.20;99.90;;;;;;4135642;28;20042;-73
2021/10/11 06:09:18;;;;;;;10.75;2.88;;;13.10;99.90;;;;;;4136222;28;20579;-73
2021/10/11 06:11:19;;;;;;;11.25;3.22;;;13.00;99.90;;;;;;4139449;28;20131;-73
2021/10/11 06:13:20;;;;;;;5.85;2.40;;;13.00;99.90;;;;;;4137131;28;20046;-74
2021/10/11 06:15:21;;;;;;;5.82;2.38;;;13.00;99.90;;;;;;4133355;28;20099;-73
2021/10/11 06:17:22;;;;;;;14.20;2.92;;;13.00;99.90;;;;;;4138037;28;20034;-73
2021/10/11 06:19:22;;;;;;;10.05;2.63;;;13.00;99.90;;;;;;4136936;28;20041;-73
2021/10/11 06:21:24;;;;;;;8.07;2.67;;;13.00;99.90;;;;;;4134504;28;20053;-72
2021/10/11 06:23:25;;;;;;;4.53;2.20;;;13.00;99.90;;;;;;4137181;28;20148;-72
2021/10/11 06:25:25;;;;;;;5.85;2.30;;;13.10;99.90;;;;;;4135048;28;20033;-72
2021/10/11 06:27:27;;;;;;;6.43;2.08;;;13.10;99.90;;;;;;4136420;28;20129;-72
2021/10/11 06:29:28;;;;;;;4.40;2.13;;;13.10;99.90;;;;;;4134678;28;21488;-72
2021/10/11 06:31:28;;;;;;;5.18;1.90;;;13.20;99.90;;;;;;4134338;28;20042;-72
2021/10/11 06:33:29;;;;;;;4.03;1.77;;;13.20;99.90;;;;;;4136714;28;20026;-72
2021/10/11 06:35:29;;;;;;;5.15;1.98;;;13.30;99.90;;;;;;4136134;28;20045;-73
2021/10/11 06:37:30;;;;;;;3.88;1.85;;;13.30;99.90;;;;;;4136166;28;20041;-73
2021/10/11 06:39:31;;;;;;;5.45;2.15;;;13.30;99.90;;;;;;4135297;28;20112;-73
2021/10/11 06:41:31;;;;;;;4.70;2.10;;;13.20;99.90;;;;;;4133875;28;20049;-73
2021/10/11 06:43:32;;;;;;;5.95;1.90;;;13.20;99.90;;;;;;4138787;28;20083;-73
2021/10/11 06:45:33;;;;;;;4.78;1.70;;;13.10;99.90;;;;;;4134492;28;20051;-73
2021/10/11 06:47:33;;;;;;;5.05;1.95;;;13.20;99.90;;;;;;4137985;28;20041;-73
2021/10/11 06:49:34;;;;;;;6.90;2.13;;;13.20;99.90;;;;;;4136960;28;20449;-73
2021/10/11 06:51:35;;;;;;;6.07;2.00;;;13.20;99.90;;;;;;4136509;28;20050;-73
2021/10/11 06:53:36;;;;;;;5.65;1.90;;;13.20;99.90;;;;;;4138318;28;20049;-73
2021/10/11 06:55:36;;;;;;;7.35;2.03;;;13.20;99.90;;;;;;4138690;28;20730;-73
2021/10/11 06:57:37;;;;;;;5.30;1.80;;;13.20;99.90;;;;;;4137308;28;20033;-73
2021/10/11 06:59:38;;;;;;;5.07;1.75;;;13.20;99.90;;;;;;4137383;28;20117;-73
2021/10/11 07:01:39;;;;;;;4.53;1.98;;;13.30;99.90;;;;;;4139649;28;20038;-72
2021/10/11 07:03:40;;;;;;;5.28;1.73;;;13.30;99.90;;;;;;4133879;28;20433;-73
2021/10/11 07:05:40;;;;;;;5.47;2.15;;;13.30;99.90;;;;;;4142365;28;20058;-73
2021/10/11 07:07:41;;;;;;;8.43;2.20;;;13.30;99.90;;;;;;4140797;28;20029;-73
2021/10/11 07:09:42;;;;;;;5.43;2.08;;;13.30;99.90;;;;;;4133648;28;20117;-73
2021/10/11 07:11:42;;;;;;;7.65;2.58;;;13.40;99.90;;;;;;4117853;28;20718;-72
2021/10/11 07:13:43;;;;;;;6.18;2.03;;;13.40;99.90;;;;;;4133460;28;20188;-73
2021/10/11 07:15:44;;;;;;;6.72;1.88;;;13.40;99.90;;;;;;4139530;28;20038;-73
2021/10/11 07:17:44;;;;;;;12.02;2.60;;;13.40;99.90;;;;;;4137494;28;20100;-73
2021/10/11 07:19:48;;;;;;;5.85;1.90;;;13.40;99.90;;;;;;4136951;28;20076;-73
2021/10/11 07:21:51;;;;;;;8.05;2.13;;;13.50;99.90;;;;;;4134559;28;20045;-73
2021/10/11 07:23:52;;;;;;;6.03;1.83;;;13.50;99.90;;;;;;4138862;28;20034;-73
2021/10/11 07:25:52;;;;;;;7.88;2.78;;;13.50;99.90;;;;;;4137583;28;20107;-73
2021/10/11 07:28:02;;;;;;;4.70;1.95;;;13.60;99.90;;;;;;4137364;28;20544;-73
2021/10/11 07:30:04;;;;;;;5.07;2.10;;;13.60;99.90;;;;;;4134072;28;20065;-72
2021/10/11 07:32:05;;;;;;;3.67;1.67;;;13.60;99.90;;;;;;4133877;28;20104;-73
2021/10/11 07:34:09;;;;;;;5.28;2.53;;;13.60;99.90;;;;;;4135572;28;20041;-73
2021/10/11 07:36:09;;;;;;;9.38;2.45;;;13.70;99.90;;;;;;4128634;28;20671;-73
2021/10/11 07:38:10;;;;;;;7.20;2.20;;;13.70;99.90;;;;;;4119977;28;20069;-74
2021/10/11 07:40:11;;;;;;;8.63;2.28;;;13.70;99.90;;;;;;4132016;28;20122;-73
2021/10/11 07:42:12;;;;;;;8.80;2.92;;;13.80;99.90;;;;;;4132666;28;20073;-73
2021/10/11 07:44:13;;;;;;;9.20;2.85;;;13.80;99.90;;;;;;4134452;28;20088;-73
2021/10/11 07:46:15;;;;;;;10.55;2.47;;;13.80;99.90;;;;;;4122686;28;20073;-73
2021/10/11 07:48:15;;;;;;;6.40;2.30;;;13.80;99.90;;;;;;4130163;28;20031;-73
2021/10/11 07:50:16;;;;;;;7.43;2.45;;;13.80;99.90;;;;;;4131951;28;20072;-73
2021/10/11 07:52:17;;;;;;;8.18;2.42;;;13.90;99.90;;;;;;4130517;28;20030;-73
2021/10/11 07:54:19;;;;;;;7.55;2.58;;;13.90;99.90;;;;;;4127801;28;20031;-73
2021/10/11 07:56:20;;;;;;;9.70;2.20;;;13.90;99.90;;;;;;4138841;28;20060;-73
2021/10/11 07:58:21;;;;;;;10.50;2.70;;;13.90;99.90;;;;;;4135050;28;20743;-73
2021/10/11 08:00:21;;;;;;;12.45;2.72;;;13.90;99.90;;;;;;4138767;28;20037;-73
2021/10/11 08:02:22;;;;;;;8.00;2.80;;;13.80;99.90;;;;;;4133627;28;20042;-73
2021/10/11 08:04:23;;;;;;;8.88;2.55;;;13.80;99.90;;;;;;4138704;28;20669;-73
2021/10/11 08:06:23;;;;;;;8.23;2.70;;;13.80;99.90;;;;;;4133964;28;20037;-73
2021/10/11 08:08:24;;;;;;;15.30;3.35;;;13.80;99.90;;;;;;4137839;28;20052;-73
2021/10/11 08:10:25;;;;;;;5.50;2.40;;;13.80;99.90;;;;;;4130717;28;20046;-73
2021/10/11 08:12:25;;;;;;;7.63;2.70;;;13.80;99.90;;;;;;4136961;28;20070;-74
2021/10/11 08:14:26;;;;;;;10.85;3.13;;;13.80;99.90;;;;;;4131534;28;20641;-72
2021/10/11 08:16:26;;;;;;;10.88;2.72;;;13.80;99.90;;;;;;4139118;28;20108;-72
2021/10/11 08:18:27;;;;;;;5.93;2.30;;;13.80;99.90;;;;;;4138633;28;20129;-72
2021/10/11 08:20:29;;;;;;;5.95;2.00;;;13.70;99.90;;;;;;4136437;28;20046;-72
2021/10/11 08:22:29;;;;;;;7.05;1.95;;;13.80;99.90;;;;;;4142454;28;20637;-72
2021/10/11 08:24:30;;;;;;;4.68;2.20;;;13.80;99.90;;;;;;4115520;28;20122;-72
2021/10/11 08:26:34;;;;;;;4.95;2.25;;;13.90;99.90;;;;;;4139265;28;20052;-72
2021/10/11 08:28:39;;;;;;;8.80;2.55;;;13.90;99.90;;;;;;4137948;28;20030;-72
2021/10/11 08:30:41;;;;;;;6.72;2.08;;;13.90;99.90;;;;;;4137875;28;20038;-72
2021/10/11 08:32:42;;;;;;;11.43;3.33;;;13.90;99.90;;;;;;4121527;28;20385;-72
2021/10/11 08:34:43;;;;;;;6.15;2.75;;;13.90;99.90;;;;;;4147703;28;20042;-72
2021/10/11 08:36:44;;;;;;;6.73;2.97;;;13.90;99.90;;;;;;4128054;28;20057;-73
2021/10/11 08:38:45;;;;;;;10.27;2.50;;;14.00;99.90;;;;;;4120027;28;20517;-72
2021/10/11 08:40:50;;;;;;;9.23;2.85;;;14.00;99.90;;;;;;4129942;28;20034;-72
2021/10/11 08:42:52;;;;;;;5.28;2.28;;;14.00;99.90;;;;;;4122993;28;20115;-72
2021/10/11 08:44:52;;;;;;;6.27;2.30;;;14.00;99.90;;;;;;4131302;28;20037;-74
2021/10/11 08:46:53;;;;;;;9.02;2.60;;;14.00;99.90;;;;;;4127110;28;20274;-73
2021/10/11 08:48:54;;;;;;;6.43;2.17;;;14.10;99.90;;;;;;4131987;28;20035;-73
2021/10/11 08:50:55;;;;;;;8.52;2.35;;;14.10;99.90;;;;;;4141964;28;20109;-73
2021/10/11 08:52:55;;;;;;;6.97;2.42;;;14.10;99.90;;;;;;4146306;28;20026;-73
2021/10/11 08:54:56;;;;;;;6.93;2.20;;;14.10;99.90;;;;;;4141976;28;20870;-73
2021/10/11 08:56:56;;;;;;;8.13;2.67;;;14.20;99.90;;;;;;4128906;28;20600;-73
2021/10/11 08:58:57;;;;;;;9.45;2.22;;;14.20;99.90;;;;;;4134441;28;20038;-73
2021/10/11 09:01:05;;;;;;;4.72;2.10;;;14.20;99.90;;;;;;4127983;28;20118;-73
2021/10/11 09:03:08;;;;;;;8.63;3.30;;;14.20;99.90;;;;;;4137620;28;20122;-73
2021/10/11 09:05:08;;;;;;;7.95;2.75;;;14.20;99.90;;;;;;4133614;28;20447;-73
2021/10/11 09:07:09;;;;;;;12.40;2.80;;;14.20;99.90;;;;;;4132661;28;20084;-73
2021/10/11 09:09:10;;;;;;;8.93;2.70;;;14.20;99.90;;;;;;4145929;28;20022;-73
2021/10/11 09:11:13;;;;;;;7.90;2.63;;;14.20;99.90;;;;;;4136329;28;20077;-73
2021/10/11 09:13:14;;;;;;;6.65;2.75;;;14.20;99.90;;;;;;4136436;28;20019;-73
2021/10/11 09:15:15;;;;;;;11.02;3.30;;;14.20;99.90;;;;;;4136047;28;20093;-73
2021/10/11 09:17:30;;;;;;;8.55;2.65;;;14.10;99.90;;;;;;4134554;28;20129;-73
2021/10/11 09:19:37;;;;;;;9.15;3.00;;;14.10;99.90;;;;;;4137968;28;20162;-73
2021/10/11 09:21:38;;;;;;;10.77;3.05;;;14.20;99.90;;;;;;4138959;28;20046;-73
2021/10/11 09:23:40;;;;;;;6.65;2.70;;;14.20;99.90;;;;;;4136736;28;20112;-73
2021/10/11 09:25:41;;;;;;;10.83;3.00;;;14.20;99.90;;;;;;4137534;28;20113;-73
2021/10/11 09:27:54;;;;;;;10.85;3.53;;;14.20;99.90;;;;;;4136745;28;20049;-73
2021/10/11 09:29:54;;;;;;;11.15;3.08;;;14.20;99.90;;;;;;4146031;28;20105;-73
2021/10/11 09:32:02;;;;;;;9.25;2.63;;;14.10;99.90;;;;;;4140381;28;20057;-73
2021/10/11 09:34:02;;;;;;;7.30;2.70;;;14.10;99.90;;;;;;4136566;28;20209;-73
2021/10/11 09:36:03;;;;;;;14.52;3.35;;;14.10;99.90;;;;;;4137219;28;20072;-73
2021/10/11 09:38:25;;;;;;;10.52;3.63;;;14.20;99.90;;;;;;4136069;28;20036;-73
2021/10/11 09:40:26;;;;;;;8.55;2.78;;;14.20;99.90;;;;;;4137753;28;20034;-73
2021/10/11 09:42:29;;;;;;;12.05;2.80;;;14.20;99.90;;;;;;4131636;28;20044;-74
2021/10/11 09:44:29;;;;;;;;;;;14.20;99.90;;;;;;4139719;28;20425;-73
2021/10/11 09:46:30;;;;;;;10.13;2.83;;;14.30;99.90;;;;;;4144470;28;19917;-73
2021/10/11 09:48:30;;;;;;;8.27;2.53;;;14.30;99.90;;;;;;4135458;28;20068;-73
2021/10/11 09:50:31;;;;;;;9.35;2.65;;;14.40;99.90;;;;;;4132612;28;20038;-73
2021/10/11 09:52:32;;;;;;;7.68;2.72;;;14.40;99.90;;;;;;4141460;28;20443;-73
2021/10/11 09:54:33;;;;;;;9.00;2.50;;;14.50;99.90;;;;;;4135513;28;20030;-73
2021/10/11 09:56:34;;;;;;;8.35;2.42;;;14.60;99.90;;;;;;4138548;28;20046;-73
2021/10/11 09:58:36;;;;;;;12.90;2.50;;;14.60;99.90;;;;;;4135565;28;20046;-73
2021/10/11 10:00:42;;;;;;;10.23;3.05;;;14.70;99.90;;;;;;4134446;28;20065;-73
2021/10/11 10:02:46;;;;;;;9.85;3.10;;;14.70;99.90;;;;;;4132652;28;20052;-74
2021/10/11 10:04:48;;;;;;;9.82;2.30;;;14.80;99.90;;;;;;4139925;28;20133;-73
2021/10/11 10:06:50;;;;;;;;;;;14.80;99.90;;;;;;4132569;28;20383;-73
2021/10/11 10:08:52;;;;;;;12.68;2.95;;;14.90;99.90;;;;;;4121907;28;20049;-73
2021/10/11 10:10:55;;;;;;;7.65;2.45;;;14.90;99.90;;;;;;4138127;28;20092;-73
2021/10/11 10:12:55;;;;;;;11.02;2.80;;;14.90;99.90;;;;;;4136911;28;20027;-73
2021/10/11 10:15:01;;;;;;;8.98;2.63;;;14.90;99.90;;;;;;4133528;28;20030;-73
2021/10/11 10:17:02;;;;;;;10.52;2.97;;;15.00;99.90;;;;;;4136701;28;20084;-73
2021/10/11 10:19:12;;;;;;;9.90;2.70;;;15.00;99.90;;;;;;4129772;28;20030;-73
2021/10/11 10:21:16;;;;;;;8.82;2.42;;;15.10;99.90;;;;;;4135180;28;20509;-73
2021/10/11 10:23:35;;;;;;;13.60;2.90;;;15.10;99.90;;;;;;4131558;28;20119;-73